createdAt,value
2017-12-28T00:00:32.231Z,9.40
2017-12-28T00:01:32.219Z,11.00
2017-12-28T00:02:32.215Z,10.60
2017-12-28T00:03:32.296Z,11.90
2017-12-28T00:04:32.202Z,11.00
2017-12-28T00:05:32.196Z,10.60
2017-12-28T00:06:32.188Z,10.30
2017-12-28T00:07:32.184Z,10.30
2017-12-28T00:08:32.177Z,11.10
2017-12-28T00:09:32.169Z,11.90
2017-12-28T00:10:32.164Z,10.70
2017-12-28T00:11:32.232Z,9.70
2017-12-28T00:12:32.152Z,11.90
2017-12-28T00:13:32.154Z,11.40
2017-12-28T00:14:32.137Z,10.10
2017-12-28T00:15:32.132Z,12.30
2017-12-28T00:16:32.130Z,11.60
2017-12-28T00:17:32.117Z,10.20
2017-12-28T00:18:32.111Z,10.30
2017-12-28T00:19:32.114Z,10.80
2017-12-28T00:20:32.098Z,9.80
2017-12-28T00:21:32.095Z,9.70
2017-12-28T00:22:32.087Z,9.50
2017-12-28T00:23:32.079Z,9.40
2017-12-28T00:24:32.072Z,9.80
2017-12-28T00:25:32.069Z,9.50
2017-12-28T00:26:32.062Z,9.40
2017-12-28T00:27:32.092Z,10.50
2017-12-28T00:28:32.048Z,10.00
2017-12-28T00:29:32.040Z,9.60
2017-12-28T00:30:32.034Z,10.70
2017-12-28T00:31:32.033Z,10.20
2017-12-28T00:32:32.022Z,9.80
2017-12-28T00:33:32.013Z,10.10
2017-12-28T00:34:32.012Z,9.20
2017-12-28T00:35:32.002Z,9.70
2017-12-28T00:36:31.997Z,9.90
2017-12-28T00:37:31.990Z,8.80
2017-12-28T00:38:31.984Z,9.30
2017-12-28T00:39:31.975Z,9.60
2017-12-28T00:40:31.970Z,9.10
2017-12-28T00:41:31.963Z,9.40
2017-12-28T00:42:31.956Z,10.80
2017-12-28T00:43:31.982Z,11.40
2017-12-28T00:44:31.953Z,9.70
2017-12-28T00:45:31.937Z,9.10
2017-12-28T00:46:31.932Z,9.40
2017-12-28T00:47:31.922Z,9.20
2017-12-28T00:48:31.921Z,8.40
2017-12-28T00:49:31.912Z,9.30
2017-12-28T00:50:31.914Z,10.30
2017-12-28T00:51:31.902Z,8.70
2017-12-28T00:52:31.894Z,8.30
2017-12-28T00:53:31.891Z,8.60
2017-12-28T00:54:31.879Z,9.50
2017-12-28T00:55:31.875Z,8.80
2017-12-28T00:56:31.869Z,8.70
2017-12-28T00:57:31.859Z,9.70
2017-12-28T00:58:31.857Z,9.30
2017-12-28T00:59:31.850Z,9.40
2017-12-28T01:00:31.847Z,9.40
2017-12-28T01:01:31.837Z,12.90
2017-12-28T01:02:31.829Z,14.00
2017-12-28T01:03:31.827Z,17.20
2017-12-28T01:04:31.817Z,10.60
2017-12-28T01:05:31.812Z,15.20
2017-12-28T01:06:31.804Z,9.10
2017-12-28T01:07:31.797Z,9.80
2017-12-28T01:08:31.792Z,10.00
2017-12-28T01:09:31.821Z,9.90
2017-12-28T01:10:31.778Z,9.90
2017-12-28T01:11:31.775Z,13.00
2017-12-28T01:12:31.767Z,9.00
2017-12-28T01:13:32.040Z,9.90
2017-12-28T01:14:31.753Z,8.30
2017-12-28T01:15:31.745Z,10.00
2017-12-28T01:16:31.739Z,8.40
2017-12-28T01:17:31.732Z,8.60
2017-12-28T01:18:31.724Z,8.40
2017-12-28T01:19:31.718Z,9.00
2017-12-28T01:20:31.715Z,8.60
2017-12-28T01:21:31.708Z,9.00
2017-12-28T01:22:31.702Z,8.20
2017-12-28T01:23:31.701Z,9.80
2017-12-28T01:24:31.690Z,10.20
2017-12-28T01:25:31.683Z,9.90
2017-12-28T01:26:31.677Z,9.90
2017-12-28T01:27:31.671Z,9.10
2017-12-28T01:28:31.670Z,8.00
2017-12-28T01:29:31.656Z,8.50
2017-12-28T01:30:31.651Z,9.10
2017-12-28T01:31:32.531Z,8.60
2017-12-28T01:32:31.642Z,8.70
2017-12-28T01:33:31.634Z,8.60
2017-12-28T01:34:31.632Z,8.70
2017-12-28T01:35:31.623Z,9.60
2017-12-28T01:36:31.617Z,8.90
2017-12-28T01:37:32.528Z,8.80
2017-12-28T01:38:31.603Z,9.00
2017-12-28T01:39:31.596Z,9.30
2017-12-28T01:40:31.597Z,8.90
2017-12-28T01:41:31.587Z,8.60
2017-12-28T01:42:31.583Z,9.00
2017-12-28T01:43:31.578Z,8.70
2017-12-28T01:44:31.567Z,9.00
2017-12-28T01:45:31.601Z,9.20
2017-12-28T01:46:31.553Z,8.50
2017-12-28T01:47:31.594Z,8.60
2017-12-28T01:48:31.546Z,9.10
2017-12-28T01:49:31.539Z,8.80
2017-12-28T01:50:31.533Z,9.10
2017-12-28T01:51:31.526Z,9.50
2017-12-28T01:52:31.519Z,8.00
2017-12-28T01:53:31.514Z,8.70
2017-12-28T01:54:31.514Z,8.10
2017-12-28T01:55:31.501Z,8.40
2017-12-28T01:56:31.497Z,8.60
2017-12-28T01:57:31.492Z,9.50
2017-12-28T01:58:31.499Z,7.80
2017-12-28T01:59:31.478Z,8.70
2017-12-28T02:00:31.476Z,8.60
2017-12-28T02:01:31.467Z,9.10
2017-12-28T02:02:31.492Z,8.70
2017-12-28T02:03:31.454Z,8.80
2017-12-28T02:04:31.449Z,8.90
2017-12-28T02:05:31.470Z,8.90
2017-12-28T02:06:31.448Z,9.50
2017-12-28T02:07:31.432Z,8.90
2017-12-28T02:08:31.428Z,8.80
2017-12-28T02:09:31.420Z,9.20
2017-12-28T02:10:31.413Z,8.40
2017-12-28T02:11:31.409Z,9.20
2017-12-28T02:12:31.407Z,8.70
2017-12-28T02:13:31.397Z,9.30
2017-12-28T02:14:31.392Z,8.80
2017-12-28T02:15:31.385Z,8.90
2017-12-28T02:16:31.380Z,8.90
2017-12-28T02:17:31.379Z,8.90
2017-12-28T02:18:31.387Z,9.30
2017-12-28T02:19:31.365Z,9.80
2017-12-28T02:20:31.354Z,9.40
2017-12-28T02:21:31.348Z,9.60
2017-12-28T02:22:31.344Z,9.00
2017-12-28T02:23:31.344Z,8.80
2017-12-28T02:24:31.334Z,8.90
2017-12-28T02:25:31.329Z,8.90
2017-12-28T02:26:31.320Z,8.90
2017-12-28T02:27:31.317Z,8.60
2017-12-28T02:28:31.310Z,8.20
2017-12-28T02:29:31.303Z,8.70
2017-12-28T02:30:31.299Z,8.20
2017-12-28T02:31:31.293Z,8.20
2017-12-28T02:32:31.287Z,8.50
2017-12-28T02:33:31.281Z,8.70
2017-12-28T02:34:31.275Z,8.70
2017-12-28T02:35:31.272Z,8.70
2017-12-28T02:36:31.262Z,8.00
2017-12-28T02:37:31.255Z,8.60
2017-12-28T02:38:31.252Z,9.40
2017-12-28T02:39:31.243Z,9.50
2017-12-28T02:40:31.238Z,9.10
2017-12-28T02:41:31.231Z,8.70
2017-12-28T02:42:31.223Z,8.60
2017-12-28T02:43:31.218Z,9.60
2017-12-28T02:44:31.215Z,9.30
2017-12-28T02:45:31.206Z,9.00
2017-12-28T02:46:31.202Z,9.30
2017-12-28T02:47:31.195Z,8.90
2017-12-28T02:48:31.192Z,8.80
2017-12-28T02:49:31.187Z,8.80
2017-12-28T02:50:31.177Z,8.90
2017-12-28T02:51:31.171Z,9.00
2017-12-28T02:52:31.166Z,8.90
2017-12-28T02:53:31.159Z,9.20
2017-12-28T02:54:31.153Z,8.50
2017-12-28T02:55:31.147Z,8.60
2017-12-28T02:56:31.140Z,9.00
2017-12-28T02:57:31.134Z,9.10
2017-12-28T02:58:31.128Z,8.40
2017-12-28T02:59:31.122Z,8.60
2017-12-28T03:00:31.116Z,8.80
2017-12-28T03:01:31.110Z,8.40
2017-12-28T03:02:31.102Z,8.50
2017-12-28T03:03:31.097Z,8.30
2017-12-28T03:04:31.092Z,8.80
2017-12-28T03:05:31.086Z,9.60
2017-12-28T03:06:31.080Z,9.10
2017-12-28T03:07:31.071Z,10.00
2017-12-28T03:08:31.068Z,8.80
2017-12-28T03:09:31.061Z,9.20
2017-12-28T03:10:31.052Z,9.00
2017-12-28T03:11:31.060Z,9.10
2017-12-28T03:12:31.042Z,10.80
2017-12-28T03:13:31.034Z,10.00
2017-12-28T03:14:31.027Z,9.30
2017-12-28T03:15:31.022Z,9.50
2017-12-28T03:16:31.018Z,10.20
2017-12-28T03:17:31.013Z,9.90
2017-12-28T03:18:31.004Z,9.60
2017-12-28T03:19:30.998Z,9.20
2017-12-28T03:20:30.992Z,9.80
2017-12-28T03:21:30.986Z,10.20
2017-12-28T03:22:30.979Z,9.80
2017-12-28T03:23:30.973Z,9.80
2017-12-28T03:24:30.967Z,9.20
2017-12-28T03:25:30.961Z,10.00
2017-12-28T03:26:30.957Z,10.00
2017-12-28T03:27:30.947Z,9.40
2017-12-28T03:28:30.941Z,10.20
2017-12-28T03:29:30.937Z,9.60
2017-12-28T03:30:30.935Z,9.90
2017-12-28T03:31:30.924Z,10.30
2017-12-28T03:32:30.918Z,10.40
2017-12-28T03:33:30.909Z,10.40
2017-12-28T03:34:30.904Z,10.90
2017-12-28T03:35:30.896Z,10.50
2017-12-28T03:36:30.892Z,10.80
2017-12-28T03:37:30.884Z,10.40
2017-12-28T03:38:30.883Z,10.30
2017-12-28T03:39:30.873Z,9.90
2017-12-28T03:40:30.869Z,11.20
2017-12-28T03:41:30.862Z,9.90
2017-12-28T03:42:30.854Z,10.20
2017-12-28T03:43:30.850Z,10.10
2017-12-28T03:44:30.842Z,10.70
2017-12-28T03:45:30.837Z,10.30
2017-12-28T03:46:30.831Z,9.70
2017-12-28T03:47:30.823Z,10.50
2017-12-28T03:48:30.817Z,9.70
2017-12-28T03:49:30.808Z,9.70
2017-12-28T03:50:30.802Z,10.30
2017-12-28T03:51:30.797Z,10.30
2017-12-28T03:52:30.790Z,9.50
2017-12-28T03:53:30.785Z,10.50
2017-12-28T03:54:30.803Z,9.50
2017-12-28T03:55:30.774Z,10.00
2017-12-28T03:56:30.765Z,10.00
2017-12-28T03:57:30.761Z,10.10
2017-12-28T03:58:30.754Z,10.10
2017-12-28T03:59:30.746Z,10.70
2017-12-28T04:00:30.747Z,11.40
2017-12-28T04:01:30.735Z,10.20
2017-12-28T04:02:30.729Z,11.50
2017-12-28T04:03:30.726Z,11.00
2017-12-28T04:04:30.719Z,11.60
2017-12-28T04:05:30.710Z,10.00
2017-12-28T04:06:30.705Z,10.80
2017-12-28T04:07:30.848Z,11.20
2017-12-28T04:08:30.767Z,10.50
2017-12-28T04:09:31.555Z,10.60
2017-12-28T04:10:31.571Z,10.70
2017-12-28T04:11:31.562Z,10.20
2017-12-28T04:12:31.540Z,11.30
2017-12-28T04:13:30.662Z,11.10
2017-12-28T04:14:30.655Z,11.00
2017-12-28T04:15:30.647Z,10.90
2017-12-28T04:16:30.644Z,10.50
2017-12-28T04:17:30.636Z,11.20
2017-12-28T04:18:37.608Z,11.40
2017-12-28T04:19:30.624Z,10.70
2017-12-28T04:20:30.619Z,11.30
2017-12-28T04:21:30.610Z,10.60
2017-12-28T04:22:30.605Z,11.00
2017-12-28T04:23:30.600Z,11.40
2017-12-28T04:24:30.592Z,11.10
2017-12-28T04:25:30.588Z,11.70
2017-12-28T04:26:30.579Z,11.30
2017-12-28T04:27:30.574Z,11.10
2017-12-28T04:28:30.566Z,12.30
2017-12-28T04:29:30.560Z,11.80
2017-12-28T04:30:30.554Z,11.70
2017-12-28T04:31:30.551Z,11.20
2017-12-28T04:32:30.542Z,11.90
2017-12-28T04:33:30.537Z,11.60
2017-12-28T04:34:30.530Z,11.50
2017-12-28T04:35:30.523Z,11.50
2017-12-28T04:36:30.517Z,12.40
2017-12-28T04:37:30.508Z,13.00
2017-12-28T04:38:30.503Z,13.00
2017-12-28T04:39:30.497Z,12.30
2017-12-28T04:40:30.492Z,11.80
2017-12-28T04:41:30.484Z,13.50
2017-12-28T04:42:30.484Z,14.00
2017-12-28T04:43:30.472Z,13.30
2017-12-28T04:44:30.468Z,13.40
2017-12-28T04:45:30.459Z,12.40
2017-12-28T04:46:30.461Z,12.90
2017-12-28T04:47:30.449Z,12.00
2017-12-28T04:48:30.442Z,11.80
2017-12-28T04:49:30.433Z,12.10
2017-12-28T04:50:30.429Z,12.10
2017-12-28T04:51:30.424Z,12.30
2017-12-28T04:52:30.420Z,12.60
2017-12-28T04:53:30.409Z,13.00
2017-12-28T04:54:30.401Z,13.60
2017-12-28T04:55:30.399Z,13.00
2017-12-28T04:56:30.389Z,14.10
2017-12-28T04:57:30.384Z,13.80
2017-12-28T04:58:30.377Z,12.90
2017-12-28T04:59:30.374Z,12.20
2017-12-28T05:00:30.366Z,12.60
2017-12-28T05:01:30.359Z,12.50
2017-12-28T05:02:30.352Z,12.50
2017-12-28T05:03:30.346Z,12.30
2017-12-28T05:04:30.340Z,12.80
2017-12-28T05:05:30.335Z,12.70
2017-12-28T05:06:30.332Z,14.70
2017-12-28T05:07:30.323Z,12.50
2017-12-28T05:08:30.316Z,12.80
2017-12-28T05:09:30.308Z,12.70
2017-12-28T05:10:30.304Z,12.60
2017-12-28T05:11:30.296Z,13.00
2017-12-28T05:12:30.291Z,12.90
2017-12-28T05:13:30.287Z,13.10
2017-12-28T05:14:30.279Z,13.60
2017-12-28T05:15:30.281Z,13.40
2017-12-28T05:16:30.268Z,13.70
2017-12-28T05:17:30.263Z,12.60
2017-12-28T05:18:30.260Z,13.70
2017-12-28T05:19:30.249Z,13.80
2017-12-28T05:20:30.248Z,13.20
2017-12-28T05:21:30.234Z,13.40
2017-12-28T05:22:30.235Z,14.20
2017-12-28T05:23:30.223Z,13.50
2017-12-28T05:24:30.216Z,13.80
2017-12-28T05:25:30.210Z,13.20
2017-12-28T05:26:30.204Z,13.40
2017-12-28T05:27:30.200Z,13.40
2017-12-28T05:28:30.195Z,13.80
2017-12-28T05:29:30.185Z,14.50
2017-12-28T05:30:30.181Z,15.00
2017-12-28T05:31:30.184Z,14.00
2017-12-28T05:32:30.168Z,15.00
2017-12-28T05:33:30.162Z,14.60
2017-12-28T05:34:30.153Z,15.20
2017-12-28T05:35:30.148Z,15.10
2017-12-28T05:36:30.144Z,15.10
2017-12-28T05:37:30.135Z,15.40
2017-12-28T05:38:30.131Z,15.80
2017-12-28T05:39:30.124Z,15.70
2017-12-28T05:40:30.119Z,15.70
2017-12-28T05:41:30.110Z,15.50
2017-12-28T05:42:30.104Z,15.70
2017-12-28T05:43:30.099Z,15.60
2017-12-28T05:44:30.094Z,15.20
2017-12-28T05:45:30.089Z,15.80
2017-12-28T05:46:30.081Z,15.70
2017-12-28T05:47:30.074Z,15.60
2017-12-28T05:48:30.065Z,15.70
2017-12-28T05:49:30.062Z,15.40
2017-12-28T05:50:30.052Z,15.40
2017-12-28T05:51:30.046Z,15.50
2017-12-28T05:52:30.041Z,16.60
2017-12-28T05:53:30.033Z,16.20
2017-12-28T05:54:30.026Z,16.20
2017-12-28T05:55:30.020Z,16.70
2017-12-28T05:56:30.016Z,15.80
2017-12-28T05:57:30.009Z,15.70
2017-12-28T05:58:29.999Z,16.10
2017-12-28T05:59:30.002Z,16.30
2017-12-28T06:00:29.988Z,16.80
2017-12-28T06:01:29.980Z,17.10
2017-12-28T06:02:29.993Z,16.30
2017-12-28T06:03:29.966Z,16.60
2017-12-28T06:04:29.964Z,18.40
2017-12-28T06:05:29.963Z,16.50
2017-12-28T06:06:29.947Z,16.90
2017-12-28T06:07:29.940Z,17.40
2017-12-28T06:08:29.937Z,17.40
2017-12-28T06:09:29.931Z,18.20
2017-12-28T06:10:29.920Z,17.50
2017-12-28T06:11:29.916Z,17.90
2017-12-28T06:12:29.911Z,17.80
2017-12-28T06:13:29.907Z,17.60
2017-12-28T06:14:29.895Z,17.60
2017-12-28T06:15:29.889Z,16.70
2017-12-28T06:16:29.886Z,15.30
2017-12-28T06:17:29.880Z,15.60
2017-12-28T06:18:29.868Z,17.20
2017-12-28T06:19:29.872Z,16.90
2017-12-28T06:20:29.859Z,15.30
2017-12-28T06:21:29.852Z,14.70
2017-12-28T06:22:29.858Z,14.60
2017-12-28T06:23:29.839Z,13.20
2017-12-28T06:24:29.837Z,12.00
2017-12-28T06:25:29.824Z,12.50
2017-12-28T06:26:29.819Z,12.80
2017-12-28T06:27:29.812Z,13.10
2017-12-28T06:28:29.806Z,12.70
2017-12-28T06:29:29.798Z,14.30
2017-12-28T06:30:29.794Z,14.30
2017-12-28T06:31:29.786Z,14.70
2017-12-28T06:32:29.788Z,14.10
2017-12-28T06:33:29.773Z,14.50
2017-12-28T06:34:29.769Z,14.90
2017-12-28T06:35:29.761Z,14.60
2017-12-28T06:36:29.754Z,15.00
2017-12-28T06:37:29.746Z,15.50
2017-12-28T06:38:29.744Z,16.70
2017-12-28T06:39:29.736Z,15.80
2017-12-28T06:40:29.731Z,16.00
2017-12-28T06:41:29.725Z,15.80
2017-12-28T06:42:29.716Z,15.20
2017-12-28T06:43:29.710Z,17.20
2017-12-28T06:44:29.703Z,17.10
2017-12-28T06:45:29.698Z,17.70
2017-12-28T06:46:29.688Z,18.80
2017-12-28T06:47:29.687Z,18.90
2017-12-28T06:48:29.679Z,17.10
2017-12-28T06:49:29.669Z,16.70
2017-12-28T06:50:29.663Z,18.30
2017-12-28T06:51:29.659Z,19.40
2017-12-28T06:52:29.651Z,19.30
2017-12-28T06:53:29.647Z,18.00
2017-12-28T06:54:29.640Z,18.00
2017-12-28T06:55:29.634Z,18.20
2017-12-28T06:56:29.625Z,17.10
2017-12-28T06:57:29.620Z,18.50
2017-12-28T06:58:29.611Z,19.20
2017-12-28T06:59:29.608Z,16.90
2017-12-28T07:00:29.598Z,18.80
2017-12-28T07:01:29.594Z,16.60
2017-12-28T07:02:29.587Z,17.70
2017-12-28T07:03:29.583Z,15.60
2017-12-28T07:04:29.574Z,15.60
2017-12-28T07:05:29.568Z,16.90
2017-12-28T07:06:29.559Z,16.80
2017-12-28T07:07:29.552Z,15.80
2017-12-28T07:08:29.549Z,13.70
2017-12-28T07:09:29.543Z,13.20
2017-12-28T07:10:29.538Z,14.20
2017-12-28T07:11:29.528Z,14.20
2017-12-28T07:12:29.524Z,14.30
2017-12-28T07:13:29.513Z,12.80
2017-12-28T07:14:29.507Z,13.00
2017-12-28T07:15:29.504Z,11.50
2017-12-28T07:16:29.499Z,11.30
2017-12-28T07:17:29.487Z,11.90
2017-12-28T07:18:29.479Z,11.80
2017-12-28T07:19:29.473Z,10.70
2017-12-28T07:20:29.465Z,10.40
2017-12-28T07:21:29.458Z,9.10
2017-12-28T07:22:29.464Z,9.50
2017-12-28T07:23:29.446Z,8.80
2017-12-28T07:24:29.439Z,9.30
2017-12-28T07:25:29.447Z,9.00
2017-12-28T07:26:29.425Z,8.00
2017-12-28T07:27:29.418Z,13.60
2017-12-28T07:28:29.411Z,8.10
2017-12-28T07:29:29.406Z,7.50
2017-12-28T07:30:29.398Z,7.60
2017-12-28T07:31:29.394Z,6.40
2017-12-28T07:32:29.384Z,6.00
2017-12-28T07:33:29.378Z,4.90
2017-12-28T07:34:29.372Z,5.50
2017-12-28T07:35:29.368Z,5.20
2017-12-28T07:36:29.359Z,5.30
2017-12-28T07:37:29.353Z,5.00
2017-12-28T07:38:29.345Z,4.80
2017-12-28T07:39:29.343Z,4.50
2017-12-28T07:40:29.340Z,4.40
2017-12-28T07:41:29.323Z,4.30
2017-12-28T07:42:29.323Z,4.60
2017-12-28T07:43:29.317Z,3.80
2017-12-28T07:44:29.303Z,4.20
2017-12-28T07:45:29.298Z,3.90
2017-12-28T07:46:29.303Z,4.10
2017-12-28T07:47:29.284Z,3.60
2017-12-28T07:48:29.277Z,3.80
2017-12-28T07:49:29.281Z,3.00
2017-12-28T07:50:29.266Z,3.10
2017-12-28T07:51:29.256Z,3.50
2017-12-28T07:52:29.249Z,3.00
2017-12-28T07:53:29.242Z,3.20
2017-12-28T07:54:29.238Z,2.70
2017-12-28T07:55:29.229Z,2.60
2017-12-28T07:56:29.226Z,2.70
2017-12-28T07:57:29.218Z,3.00
2017-12-28T07:58:29.209Z,2.80
2017-12-28T07:59:29.202Z,2.90
2017-12-28T08:00:29.417Z,2.60
2017-12-28T08:01:29.196Z,3.10
2017-12-28T08:02:29.291Z,2.90
2017-12-28T08:03:29.176Z,2.70
2017-12-28T08:04:29.202Z,2.90
2017-12-28T08:05:29.164Z,2.60
2017-12-28T08:06:29.154Z,2.80
2017-12-28T08:07:29.149Z,2.80
2017-12-28T08:08:29.143Z,3.00
2017-12-28T08:09:29.133Z,2.90
2017-12-28T08:10:29.127Z,2.80
2017-12-28T08:11:29.123Z,2.40
2017-12-28T08:12:29.114Z,2.60
2017-12-28T08:13:29.108Z,3.10
2017-12-28T08:14:29.102Z,3.00
2017-12-28T08:15:29.095Z,3.00
2017-12-28T08:16:29.091Z,3.00
2017-12-28T08:17:29.079Z,2.90
2017-12-28T08:18:29.075Z,3.00
2017-12-28T08:19:29.251Z,3.00
2017-12-28T08:20:29.060Z,3.30
2017-12-28T08:21:29.053Z,3.50
2017-12-28T08:22:29.046Z,3.30
2017-12-28T08:23:29.040Z,4.20
2017-12-28T08:24:29.033Z,3.70
2017-12-28T08:25:29.028Z,3.90
2017-12-28T08:26:29.020Z,4.00
2017-12-28T08:27:29.015Z,3.70
2017-12-28T08:28:29.008Z,4.20
2017-12-28T08:29:28.999Z,3.80
2017-12-28T08:30:28.993Z,3.80
2017-12-28T08:31:28.986Z,4.20
2017-12-28T08:32:28.982Z,3.70
2017-12-28T08:33:28.974Z,3.90
2017-12-28T08:34:28.993Z,3.70
2017-12-28T08:35:28.958Z,4.20
2017-12-28T08:36:28.953Z,3.50
2017-12-28T08:37:28.948Z,3.40
2017-12-28T08:38:28.941Z,3.40
2017-12-28T08:39:28.934Z,3.60
2017-12-28T08:40:28.928Z,3.90
2017-12-28T08:41:28.925Z,3.50
2017-12-28T08:42:28.914Z,3.70
2017-12-28T08:43:28.909Z,3.40
2017-12-28T08:44:28.902Z,3.30
2017-12-28T08:45:28.894Z,3.00
2017-12-28T08:46:28.890Z,2.70
2017-12-28T08:47:28.884Z,3.10
2017-12-28T08:48:28.878Z,3.10
2017-12-28T08:49:28.873Z,2.80
2017-12-28T08:50:28.865Z,2.50
2017-12-28T08:51:28.858Z,2.70
2017-12-28T08:52:28.849Z,2.80
2017-12-28T08:53:28.844Z,2.50
2017-12-28T08:54:28.838Z,2.70
2017-12-28T08:55:28.833Z,2.80
2017-12-28T08:56:28.827Z,2.60
2017-12-28T08:57:28.821Z,2.40
2017-12-28T08:58:28.812Z,2.70
2017-12-28T08:59:28.808Z,2.40
2017-12-28T09:00:28.859Z,2.40
2017-12-28T09:01:28.794Z,2.10
2017-12-28T09:02:28.789Z,2.00
2017-12-28T09:03:28.778Z,2.20
2017-12-28T09:04:28.776Z,2.70
2017-12-28T09:05:28.771Z,2.30
2017-12-28T09:06:28.761Z,1.90
2017-12-28T09:07:28.757Z,2.20
2017-12-28T09:08:28.752Z,2.10
2017-12-28T09:09:28.742Z,2.50
2017-12-28T09:10:28.735Z,2.80
2017-12-28T09:11:28.730Z,2.20
2017-12-28T09:12:28.725Z,1.90
2017-12-28T09:13:28.716Z,2.00
2017-12-28T09:14:28.709Z,2.10
2017-12-28T09:15:28.708Z,2.00
2017-12-28T09:16:28.698Z,2.30
2017-12-28T09:17:28.690Z,1.90
2017-12-28T09:18:28.685Z,1.80
2017-12-28T09:19:28.678Z,2.00
2017-12-28T09:20:28.673Z,1.70
2017-12-28T09:21:28.664Z,1.80
2017-12-28T09:22:28.661Z,1.70
2017-12-28T09:23:28.653Z,1.90
2017-12-28T09:24:28.649Z,2.10
2017-12-28T09:25:28.642Z,2.50
2017-12-28T09:26:28.662Z,2.00
2017-12-28T09:27:28.627Z,2.00
2017-12-28T09:28:28.625Z,2.40
2017-12-28T09:29:28.615Z,2.00
2017-12-28T09:30:28.609Z,2.30
2017-12-28T09:31:28.602Z,2.10
2017-12-28T09:32:28.599Z,1.90
2017-12-28T09:33:28.590Z,2.00
2017-12-28T09:34:28.584Z,1.90
2017-12-28T09:35:28.579Z,1.60
2017-12-28T09:36:28.573Z,2.00
2017-12-28T09:37:28.565Z,1.90
2017-12-28T09:38:28.558Z,2.00
2017-12-28T09:39:28.556Z,2.10
2017-12-28T09:40:28.548Z,2.20
2017-12-28T09:41:28.543Z,1.70
2017-12-28T09:42:28.533Z,1.90
2017-12-28T09:43:28.528Z,1.90
2017-12-28T09:44:28.521Z,2.10
2017-12-28T09:45:28.519Z,2.00
2017-12-28T09:46:28.508Z,2.70
2017-12-28T09:47:28.507Z,5.80
2017-12-28T09:48:28.499Z,3.10
2017-12-28T09:49:28.488Z,7.60
2017-12-28T09:50:28.499Z,2.00
2017-12-28T09:51:28.477Z,3.80
2017-12-28T09:52:28.473Z,2.70
2017-12-28T09:53:28.465Z,7.10
2017-12-28T09:54:28.460Z,2.90
2017-12-28T09:55:28.454Z,2.30
2017-12-28T09:56:28.448Z,2.40
2017-12-28T09:57:28.439Z,2.90
2017-12-28T09:58:28.432Z,2.30
2017-12-28T09:59:28.430Z,2.00
2017-12-28T10:00:28.440Z,1.80
2017-12-28T10:01:28.414Z,2.20
2017-12-28T10:02:28.427Z,2.10
2017-12-28T10:03:28.403Z,2.00
2017-12-28T10:04:28.398Z,1.80
2017-12-28T10:05:28.406Z,2.10
2017-12-28T10:06:28.383Z,2.10
2017-12-28T10:07:28.379Z,2.10
2017-12-28T10:08:28.381Z,2.10
2017-12-28T10:09:28.369Z,2.30
2017-12-28T10:10:28.359Z,1.70
2017-12-28T10:11:28.352Z,1.70
2017-12-28T10:12:28.346Z,2.10
2017-12-28T10:13:28.341Z,1.90
2017-12-28T10:14:28.333Z,1.70
2017-12-28T10:15:28.328Z,1.90
2017-12-28T10:16:28.321Z,2.10
2017-12-28T10:17:28.314Z,2.00
2017-12-28T10:18:28.310Z,2.30
2017-12-28T10:19:28.302Z,3.20
2017-12-28T10:20:28.297Z,1.90
2017-12-28T10:21:28.288Z,2.60
2017-12-28T10:22:28.460Z,2.50
2017-12-28T10:23:28.280Z,1.50
2017-12-28T10:24:28.273Z,1.80
2017-12-28T10:25:28.263Z,2.90
2017-12-28T10:26:28.308Z,8.60
2017-12-28T10:27:28.253Z,1.80
2017-12-28T10:28:28.248Z,1.60
2017-12-28T10:29:28.239Z,1.40
2017-12-28T10:30:28.232Z,1.50
2017-12-28T10:31:28.226Z,1.70
2017-12-28T10:32:28.228Z,1.80
2017-12-28T10:33:28.216Z,1.70
2017-12-28T10:34:28.208Z,1.70
2017-12-28T10:35:28.203Z,1.80
2017-12-28T10:36:28.197Z,2.20
2017-12-28T10:37:28.190Z,2.30
2017-12-28T10:38:28.184Z,2.30
2017-12-28T10:39:28.417Z,2.10
2017-12-28T10:40:28.175Z,2.40
2017-12-28T10:41:28.168Z,1.80
2017-12-28T10:42:28.165Z,2.20
2017-12-28T10:43:28.154Z,2.70
2017-12-28T10:44:28.149Z,2.60
2017-12-28T10:45:28.151Z,2.50
2017-12-28T10:46:29.596Z,1.90
2017-12-28T10:47:29.193Z,2.10
2017-12-28T10:48:28.717Z,1.80
2017-12-28T10:49:29.615Z,1.70
2017-12-28T10:50:28.120Z,2.20
2017-12-28T10:51:28.194Z,2.00
2017-12-28T10:52:28.617Z,1.90
2017-12-28T10:53:28.748Z,1.80
2017-12-28T10:54:28.598Z,2.10
2017-12-28T10:55:28.799Z,1.70
2017-12-28T10:56:28.633Z,1.60
2017-12-28T10:57:28.508Z,1.30
2017-12-28T10:58:28.579Z,2.20
2017-12-28T10:59:28.370Z,2.00
2017-12-28T11:00:28.415Z,2.10
2017-12-28T11:01:28.048Z,1.90
2017-12-28T11:02:28.046Z,2.00
2017-12-28T11:03:28.038Z,1.80
2017-12-28T11:04:28.033Z,2.50
2017-12-28T11:05:28.027Z,2.70
2017-12-28T11:06:28.019Z,2.40
2017-12-28T11:07:28.014Z,1.70
2017-12-28T11:08:28.018Z,1.90
2017-12-28T11:09:28.006Z,1.90
2017-12-28T11:10:28.319Z,1.80
2017-12-28T11:11:27.993Z,1.90
2017-12-28T11:12:27.986Z,2.00
2017-12-28T11:13:27.977Z,2.30
2017-12-28T11:14:27.974Z,1.70
2017-12-28T11:15:27.969Z,1.70
2017-12-28T11:16:27.963Z,3.60
2017-12-28T11:17:27.956Z,1.80
2017-12-28T11:18:27.951Z,1.80
2017-12-28T11:19:28.389Z,1.90
2017-12-28T11:20:27.941Z,1.80
2017-12-28T11:21:27.934Z,1.70
2017-12-28T11:22:27.929Z,2.10
2017-12-28T11:23:27.932Z,1.80
2017-12-28T11:24:27.919Z,1.70
2017-12-28T11:25:27.915Z,1.60
2017-12-28T11:26:27.906Z,1.90
2017-12-28T11:27:27.904Z,1.50
2017-12-28T11:28:27.895Z,2.80
2017-12-28T11:29:27.890Z,3.20
2017-12-28T11:30:27.885Z,3.10
2017-12-28T11:31:28.081Z,11.30
2017-12-28T11:32:28.257Z,1.80
2017-12-28T11:33:27.870Z,1.80
2017-12-28T11:34:27.866Z,2.70
2017-12-28T11:35:27.858Z,3.00
2017-12-28T11:36:27.851Z,2.90
2017-12-28T11:37:27.845Z,2.40
2017-12-28T11:38:27.839Z,2.10
2017-12-28T11:39:27.835Z,2.20
2017-12-28T11:40:27.833Z,1.70
2017-12-28T11:41:27.825Z,1.80
2017-12-28T11:42:27.817Z,1.80
2017-12-28T11:43:27.813Z,1.70
2017-12-28T11:44:27.808Z,2.10
2017-12-28T11:45:27.808Z,1.90
2017-12-28T11:46:27.797Z,1.90
2017-12-28T11:47:27.795Z,2.90
2017-12-28T11:48:27.813Z,2.40
2017-12-28T11:49:27.777Z,2.50
2017-12-28T11:50:27.775Z,1.90
2017-12-28T11:51:27.769Z,2.60
2017-12-28T11:52:27.764Z,1.90
2017-12-28T11:53:27.755Z,2.60
2017-12-28T11:54:27.753Z,1.90
2017-12-28T11:55:27.748Z,3.20
2017-12-28T11:56:27.743Z,3.10
2017-12-28T11:57:27.734Z,3.20
2017-12-28T11:58:27.727Z,2.70
2017-12-28T11:59:27.725Z,2.30
2017-12-28T12:00:27.719Z,1.90
2017-12-28T12:01:27.713Z,2.50
2017-12-28T12:02:27.708Z,1.90
2017-12-28T12:03:27.702Z,2.00
2017-12-28T12:04:27.701Z,1.50
2017-12-28T12:05:27.704Z,2.00
2017-12-28T12:06:27.686Z,2.00
2017-12-28T12:07:27.678Z,1.90
2017-12-28T12:08:27.675Z,2.00
2017-12-28T12:09:27.669Z,1.80
2017-12-28T12:10:27.661Z,1.70
2017-12-28T12:11:27.657Z,2.20
2017-12-28T12:12:27.650Z,1.80
2017-12-28T12:13:27.646Z,2.10
2017-12-28T12:14:27.814Z,1.90
2017-12-28T12:15:28.116Z,2.00
2017-12-28T12:16:27.744Z,2.20
2017-12-28T12:17:27.964Z,2.30
2017-12-28T12:18:28.705Z,2.10
2017-12-28T12:19:28.595Z,2.20
2017-12-28T12:20:28.593Z,2.50
2017-12-28T12:21:28.606Z,2.30
2017-12-28T12:22:27.826Z,2.50
2017-12-28T12:23:27.591Z,2.40
2017-12-28T12:24:27.585Z,2.50
2017-12-28T12:25:27.577Z,2.40
2017-12-28T12:26:27.571Z,2.30
2017-12-28T12:27:27.567Z,2.80
2017-12-28T12:28:27.560Z,2.30
2017-12-28T12:29:27.554Z,2.40
2017-12-28T12:30:27.550Z,2.50
2017-12-28T12:31:27.545Z,2.90
2017-12-28T12:32:27.541Z,2.10
2017-12-28T12:33:27.532Z,2.30
2017-12-28T12:34:27.528Z,3.00
2017-12-28T12:35:27.521Z,2.40
2017-12-28T12:36:27.518Z,2.50
2017-12-28T12:37:27.511Z,3.60
2017-12-28T12:38:27.505Z,2.40
2017-12-28T12:39:27.501Z,2.30
2017-12-28T12:40:27.519Z,2.80
2017-12-28T12:41:27.488Z,2.20
2017-12-28T12:42:27.485Z,2.80
2017-12-28T12:43:27.479Z,2.20
2017-12-28T12:44:27.475Z,2.10
2017-12-28T12:45:27.465Z,2.50
2017-12-28T12:46:27.461Z,3.40
2017-12-28T12:47:27.457Z,2.80
2017-12-28T12:48:27.453Z,2.70
2017-12-28T12:49:27.460Z,2.60
2017-12-28T12:50:27.441Z,2.60
2017-12-28T12:51:27.436Z,2.10
2017-12-28T12:52:27.429Z,2.40
2017-12-28T12:53:27.427Z,2.70
2017-12-28T12:54:27.418Z,3.00
2017-12-28T12:55:27.412Z,2.40
2017-12-28T12:56:27.409Z,2.40
2017-12-28T12:57:27.400Z,2.20
2017-12-28T12:58:27.398Z,2.50
2017-12-28T12:59:27.390Z,2.20
2017-12-28T13:00:27.407Z,2.70
2017-12-28T13:01:27.453Z,2.30
2017-12-28T13:02:27.377Z,2.20
2017-12-28T13:03:27.370Z,2.90
2017-12-28T13:04:27.365Z,2.90
2017-12-28T13:05:27.356Z,3.70
2017-12-28T13:06:27.439Z,2.60
2017-12-28T13:07:27.346Z,2.60
2017-12-28T13:08:27.342Z,3.20
2017-12-28T13:09:27.337Z,3.00